createdAt,value
2019-05-12T00:00:22.068Z,7.60
2019-05-12T00:02:49.603Z,7.60
2019-05-12T00:05:19.254Z,7.60
2019-05-12T00:07:48.731Z,7.50
2019-05-12T00:10:21.383Z,7.40
2019-05-12T00:12:49.140Z,7.40
2019-05-12T00:15:19.212Z,7.40
2019-05-12T00:17:48.098Z,7.40
2019-05-12T00:20:18.133Z,7.30
2019-05-12T00:22:54.093Z,7.20
2019-05-12T00:25:21.635Z,7.20
2019-05-12T00:27:51.311Z,7.20
2019-05-12T00:30:33.215Z,7.20
2019-05-12T00:33:01.454Z,7.20
2019-05-12T00:35:34.254Z,7.20
2019-05-12T00:38:02.005Z,7.10
2019-05-12T00:40:30.109Z,7.10
2019-05-12T00:42:57.985Z,7.00
2019-05-12T00:45:29.222Z,7.00
2019-05-12T00:47:58.281Z,6.90
2019-05-12T00:50:28.636Z,6.80
2019-05-12T00:52:57.935Z,6.80
2019-05-12T00:55:28.366Z,6.80
2019-05-12T00:58:02.509Z,6.80
2019-05-12T01:00:31.355Z,6.80
2019-05-12T01:03:03.199Z,6.80
2019-05-12T01:05:30.628Z,6.80
2019-05-12T01:07:58.565Z,6.70
2019-05-12T01:10:28.984Z,6.70
2019-05-12T01:12:59.201Z,6.70
2019-05-12T01:15:28.644Z,6.60
2019-05-12T01:17:58.298Z,6.70
2019-05-12T01:20:31.000Z,6.60
2019-05-12T01:22:58.418Z,6.60
2019-05-12T01:25:33.254Z,6.60
2019-05-12T01:28:00.930Z,6.60
2019-05-12T01:30:28.761Z,6.50
2019-05-12T01:32:58.528Z,6.50
2019-05-12T01:35:28.472Z,6.40
2019-05-12T01:37:58.830Z,6.40
2019-05-12T01:40:28.664Z,6.30
2019-05-12T01:42:58.177Z,6.40
2019-05-12T01:45:28.739Z,6.40
2019-05-12T01:48:00.059Z,6.40
2019-05-12T01:50:28.409Z,6.30
2019-05-12T01:52:59.010Z,6.30
2019-05-12T01:55:28.137Z,6.30
2019-05-12T01:57:57.773Z,6.20
2019-05-12T02:00:27.883Z,6.30
2019-05-12T02:02:55.053Z,6.20
2019-05-12T02:05:24.898Z,6.20
2019-05-12T02:08:04.574Z,6.20
2019-05-12T02:10:38.877Z,6.20
2019-05-12T02:13:11.860Z,6.20
2019-05-12T02:15:41.417Z,6.20
2019-05-12T02:18:13.790Z,6.20
2019-05-12T02:20:41.231Z,6.10
2019-05-12T02:23:09.192Z,6.20
2019-05-12T02:25:38.050Z,6.20
2019-05-12T02:28:09.723Z,6.20
2019-05-12T02:30:40.786Z,6.20
2019-05-12T02:33:15.645Z,6.30
2019-05-12T02:35:44.412Z,6.30
2019-05-12T02:38:14.380Z,6.30
2019-05-12T02:40:41.098Z,6.20
2019-05-12T02:43:08.865Z,6.20
2019-05-12T02:45:36.336Z,6.20
2019-05-12T02:48:05.021Z,6.30
2019-05-12T02:50:35.929Z,6.40
2019-05-12T02:53:05.190Z,6.50
2019-05-12T02:55:34.893Z,6.50
2019-05-12T02:58:04.928Z,6.60
2019-05-12T03:00:36.616Z,6.80
2019-05-12T03:03:07.568Z,6.90
2019-05-12T03:05:44.377Z,7.00
2019-05-12T03:08:15.340Z,7.00
2019-05-12T03:10:47.738Z,7.10
2019-05-12T03:13:15.193Z,7.20
2019-05-12T03:15:44.575Z,7.30
2019-05-12T03:18:14.637Z,7.30
2019-05-12T03:20:45.474Z,7.30
2019-05-12T03:23:15.522Z,7.40
2019-05-12T03:25:45.612Z,7.40
2019-05-12T03:28:15.876Z,7.40
2019-05-12T03:30:47.569Z,7.50
2019-05-12T03:33:19.419Z,7.50
2019-05-12T03:35:52.382Z,7.60
2019-05-12T03:38:15.205Z,7.60
2019-05-12T03:40:44.994Z,7.60
2019-05-12T03:43:24.370Z,7.60
2019-05-12T03:45:55.849Z,7.50
2019-05-12T03:48:25.772Z,7.70
2019-05-12T03:50:54.107Z,7.70
2019-05-12T03:53:24.723Z,7.70
2019-05-12T03:55:55.270Z,7.70
2019-05-12T03:58:28.159Z,7.70
2019-05-12T04:00:58.011Z,7.70
2019-05-12T04:03:34.334Z,7.70
2019-05-12T04:06:00.597Z,7.80
2019-05-12T04:08:34.461Z,7.80
2019-05-12T04:11:05.327Z,7.80
2019-05-12T04:13:44.930Z,7.80
2019-05-12T04:16:18.143Z,7.80
2019-05-12T04:18:45.604Z,7.80
2019-05-12T04:21:15.654Z,7.80
2019-05-12T04:23:45.481Z,7.80
2019-05-12T04:26:16.760Z,7.80
2019-05-12T04:28:45.606Z,7.80
2019-05-12T04:31:15.515Z,7.80
2019-05-12T04:33:45.396Z,7.80
2019-05-12T04:36:14.904Z,7.90
2019-05-12T04:38:44.959Z,7.90
2019-05-12T04:41:14.610Z,8.00
2019-05-12T04:43:44.529Z,8.10
2019-05-12T04:46:10.468Z,8.10
2019-05-12T04:48:37.973Z,8.10
2019-05-12T04:51:15.170Z,8.20
2019-05-12T04:53:44.646Z,8.20
2019-05-12T04:56:19.346Z,8.40
2019-05-12T04:58:45.034Z,8.70
2019-05-12T05:01:15.465Z,8.90
2019-05-12T05:03:44.308Z,8.80
2019-05-12T05:06:15.578Z,8.80
2019-05-12T05:08:44.266Z,8.70
2019-05-12T05:11:14.823Z,8.60
2019-05-12T05:13:46.457Z,8.50
2019-05-12T05:16:14.569Z,8.40
2019-05-12T05:18:45.353Z,8.40
2019-05-12T05:21:13.909Z,8.40
2019-05-12T05:23:41.442Z,8.90
2019-05-12T05:26:21.033Z,9.40
2019-05-12T05:28:38.510Z,9.50
2019-05-12T05:31:05.964Z,9.90
2019-05-12T05:33:34.670Z,10.90
2019-05-12T05:36:03.455Z,12.00
2019-05-12T05:38:31.015Z,12.60
2019-05-12T05:40:59.795Z,13.60
2019-05-12T05:43:28.394Z,14.50
2019-05-12T05:46:02.503Z,15.20
2019-05-12T05:48:28.288Z,15.40
2019-05-12T05:51:00.001Z,14.80
2019-05-12T05:53:30.801Z,15.20
2019-05-12T05:56:00.175Z,15.80
2019-05-12T05:58:27.829Z,15.90
2019-05-12T06:01:02.960Z,15.40
2019-05-12T06:03:27.968Z,15.90
2019-05-12T06:05:55.854Z,16.10
2019-05-12T06:08:27.383Z,15.20
2019-05-12T06:10:55.458Z,15.70
2019-05-12T06:13:27.318Z,16.00
2019-05-12T06:15:54.840Z,16.80
2019-05-12T06:18:25.057Z,17.30
2019-05-12T06:20:54.115Z,17.20
2019-05-12T06:23:28.999Z,16.80
2019-05-12T06:25:55.752Z,16.70
2019-05-12T06:28:24.421Z,15.40
2019-05-12T06:30:58.296Z,15.00
2019-05-12T06:33:31.498Z,15.60
2019-05-12T06:35:57.077Z,16.20
2019-05-12T06:38:30.997Z,16.30
2019-05-12T06:40:56.803Z,16.80
2019-05-12T06:43:24.371Z,16.80
2019-05-12T06:45:56.314Z,17.00
2019-05-12T06:48:28.445Z,17.80
2019-05-12T06:50:53.529Z,17.20
2019-05-12T06:53:26.557Z,16.30
2019-05-12T06:55:50.320Z,16.70
2019-05-12T06:58:26.085Z,17.20
2019-05-12T07:00:46.876Z,16.70
2019-05-12T07:03:14.471Z,16.00
2019-05-12T07:05:43.241Z,14.90
2019-05-12T07:08:11.347Z,14.50
2019-05-12T07:10:43.381Z,14.70
2019-05-12T07:13:07.989Z,14.40
2019-05-12T07:15:40.127Z,13.80
2019-05-12T07:18:10.121Z,14.20
2019-05-12T07:20:38.976Z,15.00
2019-05-12T07:23:08.535Z,14.60
2019-05-12T07:25:36.796Z,13.90
2019-05-12T07:28:07.776Z,13.70
2019-05-12T07:30:35.088Z,14.40
2019-05-12T07:33:04.524Z,14.30
2019-05-12T07:35:34.098Z,13.60
2019-05-12T07:38:04.273Z,13.30
2019-05-12T07:40:34.691Z,12.90
2019-05-12T07:43:00.179Z,12.90
2019-05-12T07:45:27.650Z,13.00
2019-05-12T07:47:59.494Z,13.00
2019-05-12T07:50:27.199Z,12.70
2019-05-12T07:52:54.302Z,12.60
2019-05-12T07:55:23.684Z,12.50
2019-05-12T07:57:57.890Z,12.30
2019-05-12T08:00:21.631Z,12.20
2019-05-12T08:02:49.766Z,12.10
2019-05-12T08:05:20.068Z,12.10
2019-05-12T08:07:46.453Z,12.00
2019-05-12T08:10:18.370Z,12.00
2019-05-12T08:12:44.498Z,12.10
2019-05-12T08:15:14.084Z,12.10
2019-05-12T08:17:43.873Z,12.10
2019-05-12T08:20:13.518Z,12.30
2019-05-12T08:22:41.013Z,12.40
2019-05-12T08:25:13.500Z,12.60
2019-05-12T08:27:45.287Z,12.80
2019-05-12T08:30:13.660Z,13.10
2019-05-12T08:32:40.810Z,13.40
2019-05-12T08:35:09.145Z,13.80
2019-05-12T08:37:36.500Z,13.70
2019-05-12T08:40:07.720Z,14.50
2019-05-12T08:42:34.479Z,16.00
2019-05-12T08:45:04.488Z,17.00
2019-05-12T08:47:35.486Z,17.30
2019-05-12T08:50:04.600Z,17.50
2019-05-12T08:52:36.270Z,17.50
2019-05-12T08:55:00.052Z,18.20
2019-05-12T08:57:34.851Z,17.80
2019-05-12T09:00:02.847Z,17.50
2019-05-12T09:02:25.961Z,17.00
2019-05-12T09:04:55.702Z,16.90
2019-05-12T09:07:24.272Z,16.80
2019-05-12T09:09:53.391Z,15.80
2019-05-12T09:12:23.191Z,15.00
2019-05-12T09:14:50.516Z,14.10
2019-05-12T09:17:18.324Z,14.20
2019-05-12T09:19:46.111Z,13.90
2019-05-12T09:22:16.678Z,13.50
2019-05-12T09:24:44.100Z,13.30
2019-05-12T09:27:13.567Z,13.60
2019-05-12T09:29:43.456Z,14.00
2019-05-12T09:32:10.957Z,15.40
2019-05-12T09:34:38.403Z,18.00
2019-05-12T09:37:05.849Z,18.50
2019-05-12T09:39:42.057Z,18.80
2019-05-12T09:42:03.795Z,19.60
2019-05-12T09:44:31.364Z,19.00
2019-05-12T09:46:59.119Z,19.50
2019-05-12T09:49:31.508Z,18.70
2019-05-12T09:51:58.765Z,18.10
2019-05-12T09:54:35.599Z,16.60
2019-05-12T09:56:59.466Z,15.90
2019-05-12T09:59:25.888Z,16.80
2019-05-12T10:01:54.182Z,17.60
2019-05-12T10:04:21.592Z,19.70
2019-05-12T10:06:49.114Z,21.30
2019-05-12T10:09:19.909Z,22.40
2019-05-12T10:11:53.950Z,23.60
2019-05-12T10:14:18.095Z,21.00
2019-05-12T10:16:49.687Z,19.90
2019-05-12T10:19:15.095Z,19.10
2019-05-12T10:21:44.005Z,18.10
2019-05-12T10:24:12.157Z,17.30
2019-05-12T10:26:41.219Z,16.80
2019-05-12T10:29:17.502Z,16.30
2019-05-12T10:31:39.340Z,16.10
2019-05-12T10:34:18.942Z,16.00
2019-05-12T10:36:49.227Z,16.00
2019-05-12T10:39:16.870Z,16.20
2019-05-12T10:41:44.843Z,16.70
2019-05-12T10:44:13.907Z,17.20
2019-05-12T10:46:47.351Z,18.80
2019-05-12T10:49:14.807Z,19.50
2019-05-12T10:51:44.097Z,18.60
2019-05-12T10:54:13.086Z,19.40
2019-05-12T10:56:43.658Z,20.70
2019-05-12T10:59:27.150Z,21.20
2019-05-12T11:01:47.263Z,20.80
2019-05-12T11:04:14.309Z,21.60
2019-05-12T11:06:44.690Z,23.90
